Time;durP1;ratioP1;P1;durP2;ratioP2;P2;SDS_P1;SDS_P2;PMS_P1;PMS_P2;Temp;Humidity;BMP_temperature;BMP_pressure;BME280_temperature;BME280_humidity;BME280_pressure;Samples;Min_cycle;Max_cycle;Signal;HPM_P1;HPM_P2
2023/04/24 00:01:21;;;;;;;3.57;3.27;;;10.50;45.20;;;;;;5082379;28;20862;-49
2023/04/24 00:03:47;;;;;;;3.00;2.90;;;10.60;44.70;;;;;;5072355;28;20566;-49
2023/04/24 00:06:16;;;;;;;3.37;3.17;;;10.60;46.00;;;;;;5068420;28;20546;-49
2023/04/24 00:08:43;;;;;;;3.10;2.90;;;10.70;46.90;;;;;;5069394;28;20489;-49
2023/04/24 00:11:11;;;;;;;3.80;3.37;;;10.70;47.50;;;;;;5073432;28;21039;-49
2023/04/24 00:13:38;;;;;;;4.03;3.47;;;10.70;48.10;;;;;;5071373;28;20485;-49
2023/04/24 00:16:05;;;;;;;3.20;2.97;;;10.80;48.50;;;;;;5071146;28;20564;-49
2023/04/24 00:18:32;;;;;;;4.10;3.80;;;10.80;49.00;;;;;;5074202;28;20522;-49
2023/04/24 00:20:58;;;;;;;3.57;3.37;;;10.80;48.10;;;;;;5068969;28;20492;-49
2023/04/24 00:23:25;;;;;;;8.40;3.13;;;10.80;47.60;;;;;;5076045;28;20513;-49
2023/04/24 00:25:51;;;;;;;3.50;3.30;;;10.80;49.40;;;;;;5072730;28;20480;-50
2023/04/24 00:28:19;;;;;;;5.40;4.50;;;10.80;48.10;;;;;;5068310;28;20492;-49
2023/04/24 00:30:46;;;;;;;3.63;3.43;;;10.80;47.10;;;;;;5071513;28;20485;-49
2023/04/24 00:33:12;;;;;;;3.63;3.43;;;10.90;46.60;;;;;;5078193;28;20473;-49
2023/04/24 00:35:39;;;;;;;3.83;3.47;;;10.90;45.70;;;;;;5069008;28;20489;-49
2023/04/24 00:38:06;;;;;;;3.67;3.47;;;10.90;46.60;;;;;;5078453;28;20475;-49
2023/04/24 00:40:33;;;;;;;4.40;4.03;;;10.90;46.40;;;;;;5068550;28;20458;-49
2023/04/24 00:42:59;;;;;;;4.70;4.27;;;10.90;46.10;;;;;;5069801;28;21012;-49
2023/04/24 00:45:27;;;;;;;5.03;4.20;;;11.00;47.30;;;;;;5069295;28;20496;-49
2023/04/24 00:47:54;;;;;;;4.47;4.10;;;11.10;48.30;;;;;;5068812;28;20976;-49
2023/04/24 00:50:22;;;;;;;4.07;3.77;;;11.10;47.40;;;;;;5067726;28;20957;-48
2023/04/24 00:52:48;;;;;;;4.07;3.77;;;11.10;47.40;;;;;;5068880;28;20530;-49
2023/04/24 00:55:15;;;;;;;4.63;4.00;;;11.00;48.20;;;;;;5069401;28;20519;-50
2023/04/24 00:57:42;;;;;;;4.10;3.70;;;11.00;47.10;;;;;;5076919;28;20522;-49
2023/04/24 01:00:11;;;;;;;4.20;3.87;;;11.10;46.20;;;;;;5078057;28;20464;-49
2023/04/24 01:02:43;;;;;;;4.70;3.87;;;11.10;46.00;;;;;;5076772;28;20489;-49
2023/04/24 01:05:11;;;;;;;4.07;3.87;;;11.00;45.30;;;;;;5073377;28;20468;-49
2023/04/24 01:07:39;;;;;;;6.43;4.13;;;11.10;44.40;;;;;;5070551;28;22235;-49
2023/04/24 01:10:07;;;;;;;3.73;3.47;;;11.10;44.00;;;;;;5069270;28;20489;-49
2023/04/24 01:12:34;;;;;;;13.33;4.17;;;11.10;42.40;;;;;;5076577;28;21000;-49
2023/04/24 01:15:01;;;;;;;5.80;4.37;;;11.10;42.10;;;;;;5065776;28;20561;-49
2023/04/24 01:17:27;;;;;;;4.10;3.70;;;11.10;44.00;;;;;;5068820;28;20461;-49
2023/04/24 01:19:56;;;;;;;4.50;4.10;;;11.10;43.50;;;;;;5067476;28;20489;-48
2023/04/24 01:22:24;;;;;;;4.00;3.70;;;11.20;43.20;;;;;;5063981;28;20510;-49
2023/04/24 01:24:51;;;;;;;4.17;3.87;;;11.20;43.60;;;;;;5063195;28;20492;-49
2023/04/24 01:27:17;;;;;;;4.10;3.80;;;11.20;45.50;;;;;;5067325;28;20554;-50
2023/04/24 01:29:44;;;;;;;4.30;4.00;;;11.30;46.00;;;;;;5068580;28;20498;-49
2023/04/24 01:32:11;;;;;;;4.70;4.20;;;11.30;47.40;;;;;;5066454;28;20485;-50
2023/04/24 01:34:39;;;;;;;4.50;4.20;;;11.30;47.70;;;;;;5065686;28;20506;-50
2023/04/24 01:37:05;;;;;;;4.70;4.40;;;11.30;52.20;;;;;;5066170;28;20846;-49
2023/04/24 01:39:33;;;;;;;5.20;4.70;;;11.40;52.80;;;;;;5066104;28;20461;-49
2023/04/24 01:42:01;;;;;;;6.90;4.80;;;11.40;51.50;;;;;;5065001;28;20476;-49
2023/04/24 01:44:28;;;;;;;5.50;4.60;;;11.40;23.00;;;;;;5065308;28;20484;-49
2023/04/24 01:46:56;;;;;;;5.30;4.80;;;11.10;92.30;;;;;;5064452;28;20562;-49
2023/04/24 01:49:23;;;;;;;4.77;4.20;;;10.90;99.90;;;;;;5064798;28;20464;-49
2023/04/24 01:51:49;;;;;;;8.00;4.53;;;10.80;99.90;;;;;;5067384;28;20519;-49
2023/04/24 01:54:16;;;;;;;5.30;4.80;;;10.70;99.90;;;;;;5066755;28;20481;-50
2023/04/24 01:56:44;;;;;;;5.60;5.20;;;10.60;99.90;;;;;;5066958;28;20492;-49
2023/04/24 01:59:12;;;;;;;4.70;4.40;;;10.60;99.90;;;;;;5067162;28;20489;-49
2023/04/24 02:01:39;;;;;;;4.80;4.40;;;10.50;99.90;;;;;;5061946;28;20532;-50
2023/04/24 02:04:06;;;;;;;5.10;4.80;;;10.50;99.90;;;;;;5070762;28;20476;-50
2023/04/24 02:06:33;;;;;;;5.50;4.43;;;10.50;99.90;;;;;;5066369;28;20493;-49
2023/04/24 02:09:00;;;;;;;4.73;4.43;;;10.40;99.90;;;;;;5065960;28;20508;-49
2023/04/24 02:11:27;;;;;;;5.17;4.77;;;10.40;99.90;;;;;;5064106;28;21034;-49
2023/04/24 02:13:55;;;;;;;5.47;4.67;;;10.40;99.90;;;;;;5062355;28;20477;-49
2023/04/24 02:16:21;;;;;;;9.93;4.60;;;10.40;99.90;;;;;;5067918;28;20511;-48
2023/04/24 02:18:48;;;;;;;4.80;4.50;;;10.40;99.90;;;;;;5069347;28;20887;-49
2023/04/24 02:21:14;;;;;;;5.27;4.80;;;10.40;99.90;;;;;;5069866;28;20898;-49
2023/04/24 02:23:41;;;;;;;6.13;5.60;;;10.40;99.90;;;;;;5071171;28;20486;-50
2023/04/24 02:26:08;;;;;;;8.97;4.90;;;10.40;99.90;;;;;;5074519;28;20496;-48
2023/04/24 02:28:34;;;;;;;5.57;5.07;;;10.40;99.90;;;;;;5071094;28;20472;-49
2023/04/24 02:31:02;;;;;;;5.37;5.03;;;10.40;99.90;;;;;;5072614;28;20511;-49
2023/04/24 02:33:29;;;;;;;5.47;4.97;;;10.30;99.90;;;;;;5069777;28;20497;-49
2023/04/24 02:35:55;;;;;;;5.20;4.90;;;10.30;99.90;;;;;;5070234;28;20529;-49
2023/04/24 02:38:22;;;;;;;7.13;4.90;;;10.30;99.90;;;;;;5070938;28;20497;-49
2023/04/24 02:40:48;;;;;;;5.70;5.20;;;10.30;99.90;;;;;;5067590;28;20496;-49
2023/04/24 02:43:15;;;;;;;6.97;4.90;;;10.30;99.90;;;;;;5069520;28;21061;-49
2023/04/24 02:45:41;;;;;;;6.60;4.23;;;10.30;99.90;;;;;;5072634;28;20473;-49
2023/04/24 02:48:09;;;;;;;5.17;4.87;;;10.30;99.90;;;;;;5073580;28;20488;-49
2023/04/24 02:50:36;;;;;;;5.33;4.93;;;10.30;99.90;;;;;;5070355;28;20496;-48
2023/04/24 02:53:03;;;;;;;10.07;4.87;;;10.30;99.90;;;;;;5073659;28;21034;-50
2023/04/24 02:55:30;;;;;;;6.00;5.13;;;10.30;99.90;;;;;;5071851;28;20503;-49
2023/04/24 02:57:56;;;;;;;5.83;5.27;;;10.30;99.90;;;;;;5071323;28;20526;-49
2023/04/24 03:00:23;;;;;;;5.63;5.13;;;10.30;99.90;;;;;;5068445;28;20949;-49
2023/04/24 03:02:50;;;;;;;6.80;5.80;;;10.30;99.90;;;;;;5073194;28;20540;-49
2023/04/24 03:05:18;;;;;;;5.33;4.70;;;10.30;99.90;;;;;;5073507;28;20793;-49
2023/04/24 03:07:45;;;;;;;5.80;5.40;;;10.30;99.90;;;;;;5071643;28;20521;-49
2023/04/24 03:10:12;;;;;;;5.50;5.00;;;10.30;99.90;;;;;;5064813;28;20468;-50
2023/04/24 03:12:38;;;;;;;5.50;5.00;;;10.30;99.90;;;;;;5074110;28;21083;-49
2023/04/24 03:15:05;;;;;;;14.53;11.30;;;10.30;99.90;;;;;;5071966;28;20485;-49
2023/04/24 03:17:32;;;;;;;10.10;9.20;;;10.40;99.90;;;;;;5078651;28;20973;-48
2023/04/24 03:19:59;;;;;;;7.33;6.73;;;10.40;99.90;;;;;;5073363;28;20458;-49
2023/04/24 03:22:26;;;;;;;6.57;6.03;;;10.40;99.90;;;;;;5068655;28;20508;-49
2023/04/24 03:24:54;;;;;;;6.23;5.70;;;10.50;99.90;;;;;;5068572;28;20527;-48
2023/04/24 03:27:21;;;;;;;5.10;4.73;;;10.40;99.90;;;;;;5068583;28;20552;-48
2023/04/24 03:29:47;;;;;;;5.47;5.10;;;10.40;99.90;;;;;;5069808;28;20521;-48
2023/04/24 03:32:14;;;;;;;10.20;9.20;;;10.40;99.90;;;;;;5074227;28;20483;-48
2023/04/24 03:34:41;;;;;;;9.13;8.33;;;10.50;99.90;;;;;;5070745;28;20499;-49
2023/04/24 03:37:07;;;;;;;16.30;7.00;;;10.50;99.90;;;;;;5071025;28;20530;-48
2023/04/24 03:39:35;;;;;;;11.03;6.90;;;10.50;99.90;;;;;;5069533;28;20477;-49
2023/04/24 03:42:02;;;;;;;14.00;6.40;;;10.60;99.90;;;;;;5073128;28;20516;-49
2023/04/24 03:44:28;;;;;;;5.83;5.33;;;10.50;99.90;;;;;;5072190;28;21064;-50
2023/04/24 03:46:55;;;;;;;13.63;5.90;;;10.60;99.90;;;;;;5080168;28;20545;-49
2023/04/24 03:49:22;;;;;;;5.93;5.50;;;10.70;99.90;;;;;;5072594;28;20639;-49
2023/04/24 03:51:48;;;;;;;6.80;6.20;;;10.60;99.90;;;;;;5069490;28;20487;-50
2023/04/24 03:54:15;;;;;;;8.50;5.97;;;10.60;99.90;;;;;;5070438;28;20476;-49
2023/04/24 03:56:43;;;;;;;5.40;4.97;;;10.70;99.90;;;;;;5068200;28;20496;-49
2023/04/24 03:59:09;;;;;;;6.77;6.13;;;10.70;99.90;;;;;;5070311;28;20903;-49
2023/04/24 04:01:37;;;;;;;6.20;5.77;;;10.80;99.90;;;;;;5071222;28;20478;-50
2023/04/24 04:04:03;;;;;;;7.07;6.17;;;10.80;99.90;;;;;;5070883;28;20493;-49
2023/04/24 04:06:31;;;;;;;7.53;6.33;;;10.80;99.90;;;;;;5072074;28;20507;-51
2023/04/24 04:08:58;;;;;;;11.40;6.50;;;10.80;99.90;;;;;;5071620;28;20487;-50
2023/04/24 04:11:24;;;;;;;6.57;6.00;;;10.80;99.90;;;;;;5066861;28;20520;-50
2023/04/24 04:13:52;;;;;;;7.20;5.70;;;10.70;99.90;;;;;;5070256;28;20481;-49
2023/04/24 04:16:19;;;;;;;8.73;5.67;;;10.80;99.90;;;;;;5071861;28;20884;-49
2023/04/24 04:18:45;;;;;;;6.13;5.57;;;10.70;99.90;;;;;;5064759;28;20479;-49
2023/04/24 04:21:12;;;;;;;7.10;6.50;;;10.70;99.90;;;;;;5071587;28;20492;-49
2023/04/24 04:23:40;;;;;;;10.10;5.80;;;10.80;99.90;;;;;;5070763;28;20539;-50
2023/04/24 04:26:07;;;;;;;7.87;6.37;;;10.70;99.90;;;;;;5070875;28;20464;-48
2023/04/24 04:28:34;;;;;;;6.10;5.60;;;10.80;99.90;;;;;;5065961;28;20469;-48
2023/04/24 04:31:02;;;;;;;5.57;5.20;;;10.80;99.90;;;;;;5065251;28;20464;-49
2023/04/24 04:33:29;;;;;;;6.57;5.97;;;10.80;99.90;;;;;;5076392;28;20459;-49
2023/04/24 04:35:56;;;;;;;5.70;4.90;;;10.80;99.90;;;;;;5083014;28;20835;-48
2023/04/24 04:38:23;;;;;;;5.60;5.17;;;10.80;99.90;;;;;;5067749;28;20489;-50
2023/04/24 04:40:49;;;;;;;7.13;5.70;;;10.80;99.90;;;;;;5064867;28;20492;-49
2023/04/24 04:43:16;;;;;;;6.73;6.23;;;10.80;99.90;;;;;;5065658;28;20250;-50
2023/04/24 04:45:44;;;;;;;10.47;5.90;;;10.70;99.90;;;;;;5067052;28;20457;-50
2023/04/24 04:48:13;;;;;;;6.67;5.97;;;10.70;99.90;;;;;;5068461;28;20471;-49
2023/04/24 04:50:40;;;;;;;6.50;5.97;;;10.70;99.90;;;;;;5069581;28;20515;-49
2023/04/24 04:53:06;;;;;;;5.97;5.40;;;10.70;99.90;;;;;;5072756;28;20521;-50
2023/04/24 04:55:33;;;;;;;5.93;5.43;;;10.70;99.90;;;;;;5072006;28;20468;-50
2023/04/24 04:58:00;;;;;;;6.17;5.33;;;10.70;99.90;;;;;;5070558;28;20464;-50
2023/04/24 05:00:28;;;;;;;6.83;5.90;;;10.80;99.90;;;;;;5067411;28;20467;-50
2023/04/24 05:02:55;;;;;;;6.13;5.60;;;10.80;99.90;;;;;;5078841;28;20558;-51
2023/04/24 05:05:23;;;;;;;8.23;5.90;;;10.80;99.90;;;;;;5063992;28;22735;-50
2023/04/24 05:07:49;;;;;;;6.27;5.77;;;10.90;99.90;;;;;;5069276;28;20500;-50
2023/04/24 05:10:16;;;;;;;8.67;6.07;;;10.90;99.90;;;;;;5067195;28;20505;-50
2023/04/24 05:12:42;;;;;;;8.47;5.27;;;10.90;99.90;;;;;;5065581;28;20532;-50
2023/04/24 05:15:09;;;;;;;10.23;5.80;;;10.90;99.90;;;;;;5067611;28;20907;-50
2023/04/24 05:17:36;;;;;;;5.90;5.30;;;11.00;99.90;;;;;;5066752;28;20496;-51
2023/04/24 05:20:05;;;;;;;5.27;4.77;;;11.00;99.90;;;;;;5070990;28;20480;-50
2023/04/24 05:22:33;;;;;;;5.30;4.90;;;11.10;99.90;;;;;;5057920;28;21055;-50
2023/04/24 05:24:59;;;;;;;6.10;5.60;;;11.10;99.90;;;;;;5069767;28;20547;-50
2023/04/24 05:27:26;;;;;;;5.40;5.00;;;11.10;99.90;;;;;;5071264;28;20460;-50
2023/04/24 05:29:52;;;;;;;6.80;4.70;;;11.20;99.90;;;;;;5066464;28;20465;-50
2023/04/24 05:32:19;;;;;;;5.03;4.47;;;11.20;99.90;;;;;;5069813;28;20519;-51
2023/04/24 05:34:46;;;;;;;4.73;4.43;;;11.30;99.90;;;;;;5071319;28;20528;-50
2023/04/24 05:37:13;;;;;;;4.50;4.20;;;11.30;99.90;;;;;;5063087;28;20459;-49
2023/04/24 05:39:41;;;;;;;4.37;4.07;;;11.30;99.90;;;;;;5068207;28;20522;-49
2023/04/24 05:42:08;;;;;;;5.40;5.00;;;11.30;99.90;;;;;;5067965;28;20486;-47
2023/04/24 05:44:34;;;;;;;4.97;4.50;;;11.30;99.90;;;;;;5069842;28;20891;-47
2023/04/24 05:47:01;;;;;;;4.70;4.30;;;11.40;99.90;;;;;;5068345;28;20471;-48
2023/04/24 05:49:28;;;;;;;9.27;4.70;;;11.40;99.90;;;;;;5067916;28;20461;-48
2023/04/24 05:51:54;;;;;;;4.93;4.60;;;11.50;99.90;;;;;;5070980;28;20535;-48
2023/04/24 05:54:21;;;;;;;6.23;5.50;;;11.50;99.90;;;;;;5065618;28;20492;-48
2023/04/24 05:56:50;;;;;;;5.50;4.30;;;11.60;99.90;;;;;;5066597;28;20496;-47
2023/04/24 05:59:16;;;;;;;4.07;3.63;;;11.60;99.90;;;;;;5068225;28;21186;-48
2023/04/24 06:01:43;;;;;;;5.80;3.70;;;11.70;99.90;;;;;;5067630;28;20485;-48
2023/04/24 06:04:09;;;;;;;4.30;4.00;;;11.80;99.90;;;;;;5068985;28;20479;-48
2023/04/24 06:06:36;;;;;;;4.07;3.70;;;11.90;99.90;;;;;;5068671;28;20487;-48
2023/04/24 06:09:03;;;;;;;3.07;2.87;;;12.00;99.90;;;;;;5063931;28;20461;-49
2023/04/24 06:11:30;;;;;;;4.07;3.30;;;12.10;99.90;;;;;;5069059;28;20492;-48
2023/04/24 06:13:58;;;;;;;3.13;2.83;;;12.20;99.90;;;;;;5068673;28;20461;-46
2023/04/24 06:16:24;;;;;;;3.00;2.70;;;12.30;99.90;;;;;;5063457;28;20468;-49
2023/04/24 06:18:51;;;;;;;3.00;2.80;;;12.40;99.90;;;;;;5063448;28;20496;-49
2023/04/24 06:21:17;;;;;;;4.77;3.30;;;12.60;99.50;;;;;;5066690;28;20966;-49
2023/04/24 06:23:46;;;;;;;3.87;3.43;;;12.60;41.40;;;;;;5079695;28;20912;-48
2023/04/24 06:26:12;;;;;;;6.00;3.67;;;12.90;45.90;;;;;;5064046;28;20464;-50
2023/04/24 06:28:39;;;;;;;4.23;3.50;;;13.10;49.80;;;;;;5050301;28;20507;-53
2023/04/24 06:31:07;;;;;;;3.23;2.97;;;13.10;73.70;;;;;;5050494;28;22188;-50
2023/04/24 06:33:33;;;;;;;5.03;2.93;;;13.30;70.80;;;;;;5070786;28;20541;-49
2023/04/24 06:36:00;;;;;;;2.73;2.53;;;13.40;80.20;;;;;;5069036;28;20492;-49
2023/04/24 06:38:27;;;;;;;2.00;1.90;;;13.50;99.90;;;;;;5068630;28;20504;-49
2023/04/24 06:40:53;;;;;;;3.53;2.17;;;13.60;99.90;;;;;;5060594;28;20567;-49
2023/04/24 06:43:20;;;;;;;3.67;1.90;;;14.00;99.90;;;;;;5059387;28;20567;-48
2023/04/24 06:45:46;;;;;;;2.33;1.73;;;14.30;99.90;;;;;;5074895;28;20481;-49
2023/04/24 06:48:15;;;;;;;3.40;1.50;;;14.50;99.90;;;;;;5068400;28;20524;-49
2023/04/24 06:50:41;;;;;;;3.60;1.57;;;14.80;99.90;;;;;;5065683;28;20877;-50
2023/04/24 06:53:08;;;;;;;1.30;1.20;;;14.80;92.80;;;;;;5057897;28;20483;-50
2023/04/24 06:55:36;;;;;;;3.37;1.50;;;14.70;35.90;;;;;;5059914;28;20462;-50
2023/04/24 06:58:02;;;;;;;1.10;1.10;;;14.50;51.30;;;;;;5059886;28;20500;-49
2023/04/24 07:00:29;;;;;;;1.30;1.27;;;14.40;99.90;;;;;;5059996;28;20485;-49
2023/04/24 07:02:57;;;;;;;1.50;1.40;;;14.20;99.90;;;;;;5062995;28;21012;-49
2023/04/24 07:05:25;;;;;;;2.40;1.33;;;14.10;21.90;;;;;;5059903;28;20569;-49
2023/04/24 07:07:51;;;;;;;1.30;1.30;;;14.30;99.90;;;;;;5062123;28;20485;-49
2023/04/24 07:10:19;;;;;;;1.37;1.27;;;14.60;22.70;;;;;;5058252;28;20492;-49
2023/04/24 07:12:47;;;;;;;1.40;1.40;;;14.60;31.20;;;;;;5069553;28;20489;-50
2023/04/24 07:15:13;;;;;;;1.13;1.10;;;14.40;38.90;;;;;;5073853;28;20464;-48
2023/04/24 07:17:43;;;;;;;2.00;1.40;;;14.20;59.60;;;;;;5065488;28;20493;-49
2023/04/24 07:20:11;;;;;;;1.30;1.20;;;14.10;44.60;;;;;;5067769;28;20462;-49
2023/04/24 07:22:39;;;;;;;3.57;1.53;;;14.10;39.80;;;;;;5070268;28;20488;-49
2023/04/24 07:25:07;;;;;;;1.90;1.20;;;14.10;40.90;;;;;;5071602;28;20519;-49
2023/04/24 07:27:33;;;;;;;1.50;1.40;;;14.20;99.90;;;;;;5067434;28;20895;-49
2023/04/24 07:30:00;;;;;;;1.10;1.10;;;14.50;32.60;;;;;;5064490;28;20509;-49
2023/04/24 07:32:27;;;;;;;1.97;1.30;;;14.70;35.80;;;;;;5069237;28;20565;-49
2023/04/24 07:34:53;;;;;;;1.47;1.37;;;14.70;68.90;;;;;;5071945;28;20500;-48
2023/04/24 07:37:20;;;;;;;2.23;1.43;;;14.70;89.80;;;;;;5070990;28;20515;-48
2023/04/24 07:39:49;;;;;;;1.67;1.50;;;14.80;91.80;;;;;;5071343;28;20461;-49
2023/04/24 07:42:15;;;;;;;1.00;0.90;;;15.00;99.90;;;;;;5068844;28;20513;-49
2023/04/24 07:44:42;;;;;;;1.57;1.00;;;15.40;99.90;;;;;;5063722;28;20502;-50
2023/04/24 07:47:09;;;;;;;1.00;1.00;;;15.60;1.40;;;;;;5062958;28;20510;-49
2023/04/24 07:49:36;;;;;;;1.80;1.10;;;15.70;99.90;;;;;;5063986;28;20465;-49
2023/04/24 07:52:02;;;;;;;1.00;1.00;;;15.80;99.90;;;;;;5066009;28;20526;-49
2023/04/24 07:54:29;;;;;;;1.30;1.20;;;15.90;99.90;;;;;;5067661;28;20484;-56
2023/04/24 07:56:57;;;;;;;2.13;1.00;;;16.10;99.90;;;;;;5064265;28;20501;-56
2023/04/24 07:59:24;;;;;;;1.90;1.10;;;16.30;40.80;;;;;;5055189;28;20545;-56
2023/04/24 08:01:50;;;;;;;1.40;1.07;;;16.40;35.10;;;;;;5057942;28;21162;-55
2023/04/24 08:04:17;;;;;;;0.90;0.90;;;16.50;40.70;;;;;;5063357;28;20458;-57
2023/04/24 08:06:44;;;;;;;1.67;0.90;;;16.80;56.80;;;;;;5066971;28;24553;-56
2023/04/24 08:09:11;;;;;;;2.10;1.10;;;16.80;99.90;;;;;;5064023;28;21003;-56
2023/04/24 08:11:38;;;;;;;2.67;1.20;;;16.70;88.50;;;;;;5061279;28;21132;-56
2023/04/24 08:14:06;;;;;;;1.23;1.13;;;16.60;99.90;;;;;;5060327;28;20481;-55
2023/04/24 08:16:33;;;;;;;0.80;0.80;;;16.50;99.90;;;;;;5063483;28;20489;-56
2023/04/24 08:19:00;;;;;;;0.83;0.83;;;16.70;99.90;;;;;;5059176;28;20931;-56
2023/04/24 08:21:26;;;;;;;1.20;0.90;;;16.90;99.90;;;;;;5057537;28;20575;-56
2023/04/24 08:23:53;;;;;;;2.50;0.67;;;16.80;99.90;;;;;;5062214;28;20523;-56
2023/04/24 08:26:20;;;;;;;2.00;0.70;;;16.90;99.90;;;;;;5076101;28;20477;-56
2023/04/24 08:28:46;;;;;;;1.07;0.80;;;16.60;99.90;;;;;;5076910;28;20500;-55
2023/04/24 08:31:14;;;;;;;1.47;0.60;;;16.80;99.90;;;;;;5066360;28;20496;-57
2023/04/24 08:33:41;;;;;;;0.70;0.70;;;16.60;99.90;;;;;;5071467;28;20476;-57
2023/04/24 08:36:08;;;;;;;1.90;0.80;;;16.60;99.90;;;;;;5070594;28;20942;-56
2023/04/24 08:38:34;;;;;;;2.00;0.80;;;16.90;99.90;;;;;;5072125;28;20481;-55
2023/04/24 08:41:02;;;;;;;0.60;0.60;;;16.90;99.90;;;;;;5072154;28;20507;-56
2023/04/24 08:43:29;;;;;;;0.63;0.63;;;16.80;99.90;;;;;;5068234;28;20510;-56
2023/04/24 08:45:57;;;;;;;2.50;0.90;;;16.40;99.90;;;;;;5071904;28;20513;-49
2023/04/24 08:48:26;;;;;;;0.83;0.80;;;16.40;99.90;;;;;;5071221;28;20534;-49
2023/04/24 08:50:52;;;;;;;2.20;0.90;;;16.40;99.90;;;;;;5072384;28;20888;-49
2023/04/24 08:53:19;;;;;;;3.40;0.90;;;16.50;99.90;;;;;;5068234;28;20542;-48
2023/04/24 08:55:48;;;;;;;1.53;1.03;;;16.60;99.90;;;;;;5066219;28;20488;-49
2023/04/24 08:58:17;;;;;;;1.90;1.10;;;16.80;99.90;;;;;;5068738;28;20445;-50
2023/04/24 09:00:46;;;;;;;1.20;1.10;;;16.90;99.90;;;;;;5065649;28;20850;-49
2023/04/24 09:03:14;;;;;;;1.27;0.80;;;16.90;99.90;;;;;;5057794;28;20858;-49
2023/04/24 09:05:45;;;;;;;5.20;1.10;;;16.90;99.90;;;;;;5068476;28;21017;-49
2023/04/24 09:08:13;;;;;;;1.80;1.00;;;17.30;99.90;;;;;;5070933;28;20465;-49
2023/04/24 09:10:41;;;;;;;1.83;1.07;;;17.50;1.40;;;;;;5070318;28;20498;-49
2023/04/24 09:13:08;;;;;;;1.00;0.80;;;17.30;99.90;;;;;;5067093;28;20512;-49
2023/04/24 09:15:35;;;;;;;0.87;0.87;;;17.20;99.90;;;;;;5064394;28;20545;-49
2023/04/24 09:18:02;;;;;;;2.60;0.90;;;17.00;99.90;;;;;;5063074;28;20454;-49
2023/04/24 09:20:29;;;;;;;0.80;0.80;;;16.90;99.90;;;;;;5066700;28;20502;-49
2023/04/24 09:22:57;;;;;;;1.13;0.90;;;16.80;99.90;;;;;;5061936;28;21632;-50
2023/04/24 09:25:31;;;;;;;0.60;0.60;;;16.80;99.90;;;;;;5062237;28;20568;-49
2023/04/24 09:28:01;;;;;;;1.40;0.80;;;16.60;99.90;;;;;;5062807;28;20480;-50
2023/04/24 09:30:28;;;;;;;1.37;0.60;;;16.40;99.90;;;;;;5064457;28;20490;-48
2023/04/24 09:33:13;;;;;;;0.80;0.80;;;16.70;99.90;;;;;;5066187;28;20926;-49
2023/04/24 09:35:42;;;;;;;1.60;0.80;;;16.90;99.90;;;;;;5067603;28;20465;-50
2023/04/24 09:38:10;;;;;;;1.00;0.90;;;16.90;99.90;;;;;;5066738;28;20464;-50
2023/04/24 09:40:37;;;;;;;0.87;0.87;;;16.80;99.90;;;;;;5068564;28;20445;-49
2023/04/24 09:43:03;;;;;;;1.77;0.93;;;16.60;99.90;;;;;;5065209;28;20489;-49
2023/04/24 09:45:36;;;;;;;1.37;0.70;;;16.50;99.90;;;;;;5063772;28;20993;-49
2023/04/24 09:48:03;;;;;;;1.07;1.00;;;16.50;99.90;;;;;;5061392;28;20931;-48
2023/04/24 09:50:31;;;;;;;0.70;0.70;;;16.40;99.90;;;;;;5073546;28;20485;-49
2023/04/24 09:53:01;;;;;;;1.50;1.07;;;16.10;99.90;;;;;;5063184;28;20476;-49
2023/04/24 09:55:29;;;;;;;1.23;1.00;;;16.00;99.90;;;;;;5073907;28;20493;-49
2023/04/24 09:57:58;;;;;;;0.90;0.90;;;15.90;99.90;;;;;;5073758;28;20492;-49
2023/04/24 10:00:26;;;;;;;1.67;1.57;;;15.80;99.90;;;;;;5068705;28;20488;-48
2023/04/24 10:02:59;;;;;;;1.17;0.83;;;15.70;99.90;;;;;;5064302;28;20480;-49
2023/04/24 10:05:29;;;;;;;1.30;0.90;;;15.60;99.90;;;;;;5060761;28;20477;-49
2023/04/24 10:08:02;;;;;;;4.10;1.23;;;15.50;99.90;;;;;;5061923;28;20506;-48
2023/04/24 10:10:30;;;;;;;0.80;0.73;;;15.50;99.90;;;;;;5059426;28;20542;-49
2023/04/24 10:12:56;;;;;;;1.53;1.17;;;15.50;99.90;;;;;;5065637;28;20495;-50
2023/04/24 10:15:23;;;;;;;1.13;0.80;;;15.50;99.90;;;;;;5070511;28;20488;-50
2023/04/24 10:17:53;;;;;;;1.10;1.00;;;15.70;99.90;;;;;;5073218;28;21009;-50
2023/04/24 10:20:21;;;;;;;1.87;0.93;;;15.80;99.90;;;;;;5075081;28;20457;-49
2023/04/24 10:22:50;;;;;;;1.90;0.97;;;15.80;99.90;;;;;;5059381;28;20527;-50
2023/04/24 10:25:21;;;;;;;1.10;0.90;;;15.80;99.90;;;;;;5063247;28;20489;-49
2023/04/24 10:27:50;;;;;;;1.73;1.20;;;15.80;99.90;;;;;;5061461;28;20449;-49
2023/04/24 10:30:18;;;;;;;2.73;1.03;;;15.80;99.90;;;;;;5058563;28;20599;-50
2023/04/24 10:32:45;;;;;;;0.97;0.93;;;15.90;99.90;;;;;;5065569;28;20616;-49
2023/04/24 10:35:14;;;;;;;2.03;0.90;;;16.00;99.90;;;;;;5060877;28;20526;-49
2023/04/24 10:37:44;;;;;;;2.90;1.00;;;16.00;99.90;;;;;;5066980;28;20887;-49
2023/04/24 10:40:12;;;;;;;2.97;0.90;;;16.10;99.90;;;;;;5057998;28;20511;-49
2023/04/24 10:42:42;;;;;;;1.10;0.90;;;16.00;99.90;;;;;;5067987;28;20500;-50
2023/04/24 10:45:17;;;;;;;0.87;0.87;;;15.90;99.90;;;;;;5066009;28;20492;-49
2023/04/24 10:47:44;;;;;;;5.33;1.20;;;15.80;99.90;;;;;;5067131;28;20461;-50
2023/04/24 10:50:11;;;;;;;5.40;1.00;;;15.80;99.90;;;;;;5065788;28;20544;-49
2023/04/24 10:52:48;;;;;;;2.20;1.30;;;15.80;99.90;;;;;;5062428;28;21082;-49
2023/04/24 10:55:15;;;;;;;1.90;1.10;;;15.90;99.90;;;;;;5065373;28;20539;-50
2023/04/24 10:58:02;;;;;;;0.80;0.80;;;16.00;99.90;;;;;;5059723;28;20465;-50
2023/04/24 11:00:30;;;;;;;2.60;0.80;;;16.30;99.90;;;;;;5058886;28;20458;-49
2023/04/24 11:02:57;;;;;;;2.73;0.80;;;16.60;99.90;;;;;;5063354;28;20912;-50
2023/04/24 11:05:51;;;;;;;1.10;0.80;;;16.70;99.90;;;;;;5072920;28;20496;-50
2023/04/24 11:08:24;;;;;;;1.33;0.80;;;16.80;99.90;;;;;;5066704;28;20481;-49
2023/04/24 11:10:57;;;;;;;1.07;0.90;;;17.00;99.90;;;;;;5060175;28;20545;-49
2023/04/24 11:13:25;;;;;;;3.30;1.00;;;17.00;99.90;;;;;;5062069;28;20490;-49
2023/04/24 11:16:30;;;;;;;1.80;1.00;;;17.30;99.90;;;;;;5058056;28;20468;-50
2023/04/24 11:19:03;;;;;;;1.10;0.87;;;17.40;99.90;;;;;;5048714;28;20476;-49
2023/04/24 11:21:32;;;;;;;1.47;0.70;;;17.30;99.90;;;;;;5060774;28;20473;-49
2023/04/24 11:23:59;;;;;;;1.83;1.07;;;17.20;99.90;;;;;;5059335;28;20544;-49
2023/04/24 11:26:32;;;;;;;1.70;0.97;;;17.20;99.90;;;;;;5061992;28;20485;-49
2023/04/24 11:29:08;;;;;;;0.87;0.87;;;17.00;99.90;;;;;;5065320;28;20890;-50
2023/04/24 11:31:41;;;;;;;0.70;0.70;;;16.80;99.90;;;;;;5064613;28;20477;-49
2023/04/24 11:34:11;;;;;;;1.13;0.73;;;16.80;99.90;;;;;;5060118;28;20460;-49
2023/04/24 11:36:39;;;;;;;1.87;0.87;;;16.70;99.90;;;;;;5067980;28;20449;-49
2023/04/24 11:39:06;;;;;;;2.20;0.77;;;16.70;99.90;;;;;;5067268;28;20464;-48
2023/04/24 11:41:33;;;;;;;4.07;0.93;;;16.60;99.90;;;;;;5085180;28;20507;-49
2023/04/24 11:44:00;;;;;;;5.43;0.80;;;17.20;99.90;;;;;;5073134;28;21006;-53
2023/04/24 11:46:31;;;;;;;1.73;0.70;;;17.50;99.90;;;;;;5071982;28;20473;-48
2023/04/24 11:48:59;;;;;;;1.43;0.67;;;18.20;99.90;;;;;;5063694;28;20476;-48
2023/04/24 11:51:28;;;;;;;2.30;0.90;;;17.90;99.90;;;;;;5058226;28;20505;-49
2023/04/24 11:53:55;;;;;;;0.80;0.80;;;18.10;99.90;;;;;;5059967;28;20841;-48
2023/04/24 11:56:22;;;;;;;0.97;0.60;;;18.00;99.90;;;;;;5058369;28;20492;-49
2023/04/24 11:58:49;;;;;;;0.73;0.60;;;18.20;99.90;;;;;;5071872;28;20538;-49
2023/04/24 12:01:15;;;;;;;2.77;0.90;;;18.20;99.90;;;;;;5063166;28;20485;-49
2023/04/24 12:03:46;;;;;;;3.03;0.80;;;18.20;99.90;;;;;;5067087;28;20467;-50
2023/04/24 12:06:13;;;;;;;1.23;0.80;;;18.30;99.90;;;;;;5069359;28;20509;-49
2023/04/24 12:08:41;;;;;;;4.40;0.70;;;18.10;99.90;;;;;;5067844;28;20458;-49
2023/04/24 12:11:08;;;;;;;6.40;0.57;;;17.80;99.90;;;;;;5069213;28;20516;-48
2023/04/24 12:13:36;;;;;;;1.80;0.77;;;17.70;99.90;;;;;;5070058;28;20510;-48
2023/04/24 12:16:03;;;;;;;1.23;1.13;;;17.80;99.90;;;;;;5066019;28;20823;-49
2023/04/24 12:18:30;;;;;;;2.30;0.80;;;17.60;99.90;;;;;;5075494;28;20535;-50
2023/04/24 12:21:15;;;;;;;0.93;0.83;;;17.40;99.90;;;;;;5068738;28;20493;-50
2023/04/24 12:23:45;;;;;;;2.30;0.53;;;17.30;99.90;;;;;;5059819;28;20998;-49
2023/04/24 12:26:12;;;;;;;1.27;1.00;;;17.00;1.40;;;;;;5065912;28;20562;-49
2023/04/24 12:28:39;;;;;;;5.23;1.57;;;16.90;99.90;;;;;;5069796;28;20504;-49
2023/04/24 12:31:07;;;;;;;0.80;0.80;;;16.80;99.90;;;;;;5071490;28;20481;-48
2023/04/24 12:33:35;;;;;;;2.20;0.93;;;16.70;99.90;;;;;;5070251;28;20911;-49
2023/04/24 12:36:02;;;;;;;1.37;0.73;;;16.70;99.90;;;;;;5056248;28;20445;-48
2023/04/24 12:38:30;;;;;;;0.80;0.80;;;16.70;99.90;;;;;;5066850;28;20940;-49
2023/04/24 12:41:05;;;;;;;1.93;1.33;;;16.70;99.90;;;;;;5072619;28;20460;-55
2023/04/24 12:43:32;;;;;;;2.10;1.10;;;16.60;99.90;;;;;;5082868;28;20459;-49
2023/04/24 12:45:59;;;;;;;3.60;0.80;;;16.80;99.90;;;;;;5077478;28;20457;-49
2023/04/24 12:48:26;;;;;;;0.60;0.60;;;16.60;99.90;;;;;;5069966;28;20465;-49